sensor_id;sensor_type;location;lat;lon;timestamp;P1;durP1;ratioP1;P2;durP2;ratioP2
67869;SDS011;54673;52.262;6.830;2023-03-07T00:01:37;6.07;;;3.70;;
67869;SDS011;54673;52.262;6.830;2023-03-07T00:04:03;5.82;;;3.40;;
67869;SDS011;54673;52.262;6.830;2023-03-07T00:06:29;4.93;;;3.53;;
67869;SDS011;54673;52.262;6.830;2023-03-07T00:08:57;5.65;;;3.80;;
67869;SDS011;54673;52.262;6.830;2023-03-07T00:11:24;6.03;;;3.47;;
67869;SDS011;54673;52.262;6.830;2023-03-07T00:13:51;5.90;;;3.60;;
67869;SDS011;54673;52.262;6.830;2023-03-07T00:16:18;4.70;;;3.13;;
67869;SDS011;54673;52.262;6.830;2023-03-07T00:18:45;4.90;;;3.20;;
67869;SDS011;54673;52.262;6.830;2023-03-07T00:21:12;5.55;;;3.35;;
67869;SDS011;54673;52.262;6.830;2023-03-07T00:23:40;4.10;;;3.30;;
67869;SDS011;54673;52.262;6.830;2023-03-07T00:26:09;4.65;;;3.05;;
67869;SDS011;54673;52.262;6.830;2023-03-07T00:28:35;4.63;;;3.10;;
67869;SDS011;54673;52.262;6.830;2023-03-07T00:31:01;4.67;;;3.10;;
67869;SDS011;54673;52.262;6.830;2023-03-07T00:33:28;4.60;;;3.10;;
67869;SDS011;54673;52.262;6.830;2023-03-07T00:35:55;5.57;;;3.20;;
67869;SDS011;54673;52.262;6.830;2023-03-07T00:38:25;4.53;;;2.80;;
67869;SDS011;54673;52.262;6.830;2023-03-07T00:41:06;4.07;;;2.63;;
67869;SDS011;54673;52.262;6.830;2023-03-07T00:43:36;4.68;;;3.05;;
67869;SDS011;54673;52.262;6.830;2023-03-07T00:46:02;5.27;;;2.50;;
67869;SDS011;54673;52.262;6.830;2023-03-07T00:48:28;4.18;;;3.00;;
67869;SDS011;54673;52.262;6.830;2023-03-07T00:50:56;4.68;;;2.70;;
67869;SDS011;54673;52.262;6.830;2023-03-07T00:53:22;3.63;;;2.60;;
67869;SDS011;54673;52.262;6.830;2023-03-07T00:55:56;4.20;;;2.78;;
67869;SDS011;54673;52.262;6.830;2023-03-07T00:58:24;4.00;;;2.67;;
67869;SDS011;54673;52.262;6.830;2023-03-07T01:00:51;3.85;;;2.70;;
67869;SDS011;54673;52.262;6.830;2023-03-07T01:03:16;5.83;;;2.40;;
67869;SDS011;54673;52.262;6.830;2023-03-07T01:05:43;3.80;;;2.40;;
67869;SDS011;54673;52.262;6.830;2023-03-07T01:08:09;3.90;;;2.42;;
67869;SDS011;54673;52.262;6.830;2023-03-07T01:10:34;4.13;;;2.40;;
67869;SDS011;54673;52.262;6.830;2023-03-07T01:13:00;4.00;;;2.30;;
67869;SDS011;54673;52.262;6.830;2023-03-07T01:15:26;3.50;;;2.13;;
67869;SDS011;54673;52.262;6.830;2023-03-07T01:17:52;3.37;;;2.40;;
67869;SDS011;54673;52.262;6.830;2023-03-07T01:20:18;2.90;;;2.17;;
67869;SDS011;54673;52.262;6.830;2023-03-07T01:22:44;3.10;;;2.10;;
67869;SDS011;54673;52.262;6.830;2023-03-07T01:25:10;3.27;;;1.97;;
67869;SDS011;54673;52.262;6.830;2023-03-07T01:27:37;2.90;;;2.10;;
67869;SDS011;54673;52.262;6.830;2023-03-07T01:30:03;3.13;;;2.00;;
67869;SDS011;54673;52.262;6.830;2023-03-07T01:32:32;3.63;;;2.00;;
67869;SDS011;54673;52.262;6.830;2023-03-07T01:34:58;3.45;;;2.00;;
67869;SDS011;54673;52.262;6.830;2023-03-07T01:37:23;3.07;;;2.03;;
67869;SDS011;54673;52.262;6.830;2023-03-07T01:39:50;2.17;;;1.60;;
67869;SDS011;54673;52.262;6.830;2023-03-07T01:42:16;2.60;;;1.58;;
67869;SDS011;54673;52.262;6.830;2023-03-07T01:47:52;2.30;;;1.73;;
67869;SDS011;54673;52.262;6.830;2023-03-07T01:50:18;2.45;;;2.08;;
67869;SDS011;54673;52.262;6.830;2023-03-07T01:52:44;2.37;;;1.70;;
67869;SDS011;54673;52.262;6.830;2023-03-07T01:55:14;2.90;;;1.80;;
67869;SDS011;54673;52.262;6.830;2023-03-07T01:57:41;1.93;;;1.70;;
67869;SDS011;54673;52.262;6.830;2023-03-07T02:00:09;2.83;;;1.60;;
67869;SDS011;54673;52.262;6.830;2023-03-07T02:02:38;2.00;;;1.53;;
67869;SDS011;54673;52.262;6.830;2023-03-07T02:05:17;1.73;;;1.55;;
67869;SDS011;54673;52.262;6.830;2023-03-07T02:07:48;2.17;;;1.70;;
67869;SDS011;54673;52.262;6.830;2023-03-07T02:10:15;1.60;;;1.40;;
67869;SDS011;54673;52.262;6.830;2023-03-07T02:12:43;2.10;;;1.83;;
67869;SDS011;54673;52.262;6.830;2023-03-07T02:15:09;1.63;;;1.43;;
67869;SDS011;54673;52.262;6.830;2023-03-07T02:17:36;1.83;;;1.42;;
67869;SDS011;54673;52.262;6.830;2023-03-07T02:22:54;1.53;;;1.20;;
67869;SDS011;54673;52.262;6.830;2023-03-07T02:27:57;1.90;;;1.13;;
67869;SDS011;54673;52.262;6.830;2023-03-07T02:30:23;1.75;;;1.23;;
67869;SDS011;54673;52.262;6.830;2023-03-07T02:32:49;1.10;;;1.00;;
67869;SDS011;54673;52.262;6.830;2023-03-07T02:35:16;1.50;;;1.10;;
67869;SDS011;54673;52.262;6.830;2023-03-07T02:37:45;1.88;;;1.20;;
67869;SDS011;54673;52.262;6.830;2023-03-07T02:40:13;1.57;;;1.20;;
67869;SDS011;54673;52.262;6.830;2023-03-07T02:42:42;1.85;;;1.13;;
67869;SDS011;54673;52.262;6.830;2023-03-07T02:45:11;1.27;;;1.10;;
67869;SDS011;54673;52.262;6.830;2023-03-07T02:47:40;2.00;;;0.90;;
67869;SDS011;54673;52.262;6.830;2023-03-07T02:50:07;3.30;;;1.30;;
67869;SDS011;54673;52.262;6.830;2023-03-07T02:52:34;2.17;;;0.87;;
67869;SDS011;54673;52.262;6.830;2023-03-07T02:54:59;2.05;;;1.10;;
67869;SDS011;54673;52.262;6.830;2023-03-07T02:57:25;1.97;;;0.93;;
67869;SDS011;54673;52.262;6.830;2023-03-07T02:59:51;1.27;;;1.17;;
67869;SDS011;54673;52.262;6.830;2023-03-07T03:02:16;1.60;;;1.10;;
67869;SDS011;54673;52.262;6.830;2023-03-07T03:04:42;2.08;;;1.52;;
67869;SDS011;54673;52.262;6.830;2023-03-07T03:07:07;1.50;;;1.20;;
67869;SDS011;54673;52.262;6.830;2023-03-07T03:09:33;2.20;;;1.10;;
67869;SDS011;54673;52.262;6.830;2023-03-07T03:11:58;1.70;;;1.17;;
67869;SDS011;54673;52.262;6.830;2023-03-07T03:14:24;2.55;;;1.10;;
67869;SDS011;54673;52.262;6.830;2023-03-07T03:16:53;1.50;;;1.20;;
67869;SDS011;54673;52.262;6.830;2023-03-07T03:19:19;1.55;;;1.20;;
67869;SDS011;54673;52.262;6.830;2023-03-07T03:21:45;2.58;;;1.80;;
67869;SDS011;54673;52.262;6.830;2023-03-07T03:24:11;2.17;;;1.13;;
67869;SDS011;54673;52.262;6.830;2023-03-07T03:26:37;1.43;;;1.10;;
67869;SDS011;54673;52.262;6.830;2023-03-07T03:29:03;1.20;;;1.10;;
67869;SDS011;54673;52.262;6.830;2023-03-07T03:31:29;1.83;;;1.03;;
67869;SDS011;54673;52.262;6.830;2023-03-07T03:33:56;1.30;;;1.20;;
67869;SDS011;54673;52.262;6.830;2023-03-07T03:36:22;3.15;;;1.08;;
67869;SDS011;54673;52.262;6.830;2023-03-07T03:38:53;1.37;;;1.10;;
67869;SDS011;54673;52.262;6.830;2023-03-07T03:41:20;1.63;;;1.20;;
67869;SDS011;54673;52.262;6.830;2023-03-07T03:43:47;2.03;;;1.17;;
67869;SDS011;54673;52.262;6.830;2023-03-07T03:46:13;1.70;;;1.10;;
67869;SDS011;54673;52.262;6.830;2023-03-07T03:48:38;1.43;;;1.10;;
67869;SDS011;54673;52.262;6.830;2023-03-07T03:51:11;1.38;;;1.00;;
67869;SDS011;54673;52.262;6.830;2023-03-07T03:53:38;4.10;;;1.17;;
67869;SDS011;54673;52.262;6.830;2023-03-07T03:56:06;1.53;;;1.23;;
67869;SDS011;54673;52.262;6.830;2023-03-07T03:58:38;2.03;;;1.40;;
67869;SDS011;54673;52.262;6.830;2023-03-07T04:01:05;2.33;;;1.10;;
67869;SDS011;54673;52.262;6.830;2023-03-07T04:03:40;1.40;;;1.08;;
67869;SDS011;54673;52.262;6.830;2023-03-07T04:06:09;1.15;;;0.95;;
67869;SDS011;54673;52.262;6.830;2023-03-07T04:08:55;1.30;;;0.97;;
67869;SDS011;54673;52.262;6.830;2023-03-07T04:11:22;2.08;;;0.77;;
67869;SDS011;54673;52.262;6.830;2023-03-07T04:13:48;1.63;;;0.97;;
67869;SDS011;54673;52.262;6.830;2023-03-07T04:16:14;1.52;;;1.02;;
67869;SDS011;54673;52.262;6.830;2023-03-07T04:18:40;2.70;;;0.90;;
67869;SDS011;54673;52.262;6.830;2023-03-07T04:21:06;2.50;;;0.90;;
67869;SDS011;54673;52.262;6.830;2023-03-07T04:23:35;2.17;;;0.83;;
67869;SDS011;54673;52.262;6.830;2023-03-07T04:26:02;1.55;;;1.00;;
67869;SDS011;54673;52.262;6.830;2023-03-07T04:28:31;1.08;;;0.98;;
67869;SDS011;54673;52.262;6.830;2023-03-07T04:31:14;3.10;;;0.80;;
67869;SDS011;54673;52.262;6.830;2023-03-07T04:33:41;1.25;;;1.00;;
67869;SDS011;54673;52.262;6.830;2023-03-07T04:36:07;2.13;;;1.00;;
67869;SDS011;54673;52.262;6.830;2023-03-07T04:38:34;2.03;;;1.00;;
67869;SDS011;54673;52.262;6.830;2023-03-07T04:40:59;1.63;;;0.95;;
67869;SDS011;54673;52.262;6.830;2023-03-07T04:43:25;1.50;;;0.93;;
67869;SDS011;54673;52.262;6.830;2023-03-07T04:45:51;3.13;;;1.00;;
67869;SDS011;54673;52.262;6.830;2023-03-07T04:48:17;2.87;;;1.10;;
67869;SDS011;54673;52.262;6.830;2023-03-07T04:50:43;1.20;;;0.95;;
67869;SDS011;54673;52.262;6.830;2023-03-07T04:53:09;1.60;;;0.90;;
67869;SDS011;54673;52.262;6.830;2023-03-07T04:55:34;1.60;;;1.00;;
67869;SDS011;54673;52.262;6.830;2023-03-07T04:58:00;1.48;;;1.10;;
67869;SDS011;54673;52.262;6.830;2023-03-07T05:00:25;1.57;;;0.93;;
67869;SDS011;54673;52.262;6.830;2023-03-07T05:02:51;4.13;;;1.10;;
67869;SDS011;54673;52.262;6.830;2023-03-07T05:05:21;1.70;;;1.15;;
67869;SDS011;54673;52.262;6.830;2023-03-07T05:07:47;1.90;;;0.80;;
67869;SDS011;54673;52.262;6.830;2023-03-07T05:10:12;2.30;;;0.90;;
67869;SDS011;54673;52.262;6.830;2023-03-07T05:12:38;1.07;;;0.70;;
67869;SDS011;54673;52.262;6.830;2023-03-07T05:15:04;1.73;;;0.80;;
67869;SDS011;54673;52.262;6.830;2023-03-07T05:17:30;1.30;;;0.80;;
67869;SDS011;54673;52.262;6.830;2023-03-07T05:19:55;1.70;;;1.10;;
67869;SDS011;54673;52.262;6.830;2023-03-07T05:22:21;2.03;;;0.60;;
67869;SDS011;54673;52.262;6.830;2023-03-07T05:24:47;2.65;;;1.00;;
67869;SDS011;54673;52.262;6.830;2023-03-07T05:27:12;1.70;;;0.87;;
67869;SDS011;54673;52.262;6.830;2023-03-07T05:29:38;1.67;;;0.70;;
67869;SDS011;54673;52.262;6.830;2023-03-07T05:32:04;1.70;;;0.70;;
67869;SDS011;54673;52.262;6.830;2023-03-07T05:34:30;1.00;;;0.57;;
67869;SDS011;54673;52.262;6.830;2023-03-07T05:36:55;1.23;;;0.53;;
67869;SDS011;54673;52.262;6.830;2023-03-07T05:39:22;2.67;;;0.97;;
67869;SDS011;54673;52.262;6.830;2023-03-07T05:41:48;2.70;;;0.68;;
67869;SDS011;54673;52.262;6.830;2023-03-07T05:44:15;1.88;;;0.88;;
67869;SDS011;54673;52.262;6.830;2023-03-07T05:46:40;3.87;;;0.63;;
67869;SDS011;54673;52.262;6.830;2023-03-07T05:49:06;1.90;;;0.80;;
67869;SDS011;54673;52.262;6.830;2023-03-07T05:51:32;1.03;;;0.90;;
67869;SDS011;54673;52.262;6.830;2023-03-07T05:53:58;2.45;;;0.75;;
67869;SDS011;54673;52.262;6.830;2023-03-07T05:56:23;4.27;;;0.70;;
67869;SDS011;54673;52.262;6.830;2023-03-07T05:58:49;1.03;;;0.70;;
67869;SDS011;54673;52.262;6.830;2023-03-07T06:01:14;1.48;;;0.63;;
67869;SDS011;54673;52.262;6.830;2023-03-07T06:03:40;2.33;;;0.83;;
67869;SDS011;54673;52.262;6.830;2023-03-07T06:06:08;1.42;;;0.63;;
67869;SDS011;54673;52.262;6.830;2023-03-07T06:08:33;1.53;;;0.70;;
67869;SDS011;54673;52.262;6.830;2023-03-07T06:10:59;2.03;;;1.00;;
67869;SDS011;54673;52.262;6.830;2023-03-07T06:13:24;2.30;;;0.70;;
67869;SDS011;54673;52.262;6.830;2023-03-07T06:15:50;2.50;;;0.70;;
67869;SDS011;54673;52.262;6.830;2023-03-07T06:18:17;1.83;;;0.60;;
67869;SDS011;54673;52.262;6.830;2023-03-07T06:20:52;1.02;;;0.50;;
67869;SDS011;54673;52.262;6.830;2023-03-07T06:23:19;2.50;;;0.60;;
67869;SDS011;54673;52.262;6.830;2023-03-07T06:25:44;2.40;;;0.97;;
67869;SDS011;54673;52.262;6.830;2023-03-07T06:28:10;1.33;;;0.70;;
67869;SDS011;54673;52.262;6.830;2023-03-07T06:30:35;1.40;;;0.90;;
67869;SDS011;54673;52.262;6.830;2023-03-07T06:33:01;2.00;;;0.70;;
67869;SDS011;54673;52.262;6.830;2023-03-07T06:35:26;3.53;;;0.82;;
67869;SDS011;54673;52.262;6.830;2023-03-07T06:37:52;2.17;;;0.87;;
67869;SDS011;54673;52.262;6.830;2023-03-07T06:40:17;2.00;;;0.77;;
67869;SDS011;54673;52.262;6.830;2023-03-07T06:42:43;0.98;;;0.70;;
67869;SDS011;54673;52.262;6.830;2023-03-07T06:45:08;2.03;;;0.80;;
67869;SDS011;54673;52.262;6.830;2023-03-07T06:47:34;1.17;;;0.75;;
67869;SDS011;54673;52.262;6.830;2023-03-07T06:50:00;1.63;;;0.97;;
67869;SDS011;54673;52.262;6.830;2023-03-07T06:52:26;2.38;;;0.80;;
67869;SDS011;54673;52.262;6.830;2023-03-07T06:54:51;1.40;;;0.80;;
67869;SDS011;54673;52.262;6.830;2023-03-07T06:57:17;2.03;;;1.10;;
67869;SDS011;54673;52.262;6.830;2023-03-07T06:59:43;1.73;;;0.63;;
67869;SDS011;54673;52.262;6.830;2023-03-07T07:02:10;1.00;;;0.90;;
67869;SDS011;54673;52.262;6.830;2023-03-07T07:04:38;2.15;;;0.90;;
67869;SDS011;54673;52.262;6.830;2023-03-07T07:07:03;1.70;;;0.93;;
67869;SDS011;54673;52.262;6.830;2023-03-07T07:09:31;1.38;;;0.90;;
67869;SDS011;54673;52.262;6.830;2023-03-07T07:11:57;1.67;;;0.70;;
67869;SDS011;54673;52.262;6.830;2023-03-07T07:14:22;3.77;;;0.90;;
67869;SDS011;54673;52.262;6.830;2023-03-07T07:16:48;2.20;;;0.87;;
67869;SDS011;54673;52.262;6.830;2023-03-07T07:19:13;1.35;;;0.90;;
67869;SDS011;54673;52.262;6.830;2023-03-07T07:21:39;2.07;;;1.00;;
67869;SDS011;54673;52.262;6.830;2023-03-07T07:24:05;2.75;;;0.80;;
67869;SDS011;54673;52.262;6.830;2023-03-07T07:26:30;3.53;;;0.80;;
67869;SDS011;54673;52.262;6.830;2023-03-07T07:28:56;2.07;;;0.80;;
67869;SDS011;54673;52.262;6.830;2023-03-07T07:31:21;4.03;;;0.77;;
67869;SDS011;54673;52.262;6.830;2023-03-07T07:33:47;2.17;;;0.70;;
67869;SDS011;54673;52.262;6.830;2023-03-07T07:36:12;1.60;;;0.87;;
67869;SDS011;54673;52.262;6.830;2023-03-07T07:38:38;3.22;;;1.10;;
67869;SDS011;54673;52.262;6.830;2023-03-07T07:41:04;1.70;;;0.70;;
67869;SDS011;54673;52.262;6.830;2023-03-07T07:43:29;1.80;;;0.80;;
67869;SDS011;54673;52.262;6.830;2023-03-07T07:45:55;1.20;;;0.70;;
67869;SDS011;54673;52.262;6.830;2023-03-07T07:48:21;1.48;;;0.50;;
67869;SDS011;54673;52.262;6.830;2023-03-07T07:50:46;2.60;;;0.70;;
67869;SDS011;54673;52.262;6.830;2023-03-07T07:53:12;1.43;;;0.90;;
67869;SDS011;54673;52.262;6.830;2023-03-07T07:55:38;1.90;;;0.73;;
67869;SDS011;54673;52.262;6.830;2023-03-07T07:58:04;1.60;;;0.60;;
67869;SDS011;54673;52.262;6.830;2023-03-07T08:00:29;1.95;;;0.77;;
67869;SDS011;54673;52.262;6.830;2023-03-07T08:02:55;1.50;;;0.60;;
67869;SDS011;54673;52.262;6.830;2023-03-07T08:05:22;1.80;;;0.70;;
67869;SDS011;54673;52.262;6.830;2023-03-07T08:07:48;1.58;;;0.82;;
67869;SDS011;54673;52.262;6.830;2023-03-07T08:10:14;2.03;;;0.70;;
67869;SDS011;54673;52.262;6.830;2023-03-07T08:12:41;3.38;;;0.70;;
67869;SDS011;54673;52.262;6.830;2023-03-07T08:15:08;3.40;;;0.73;;
67869;SDS011;54673;52.262;6.830;2023-03-07T08:17:34;11.90;;;0.83;;
67869;SDS011;54673;52.262;6.830;2023-03-07T08:20:00;1.13;;;0.50;;
67869;SDS011;54673;52.262;6.830;2023-03-07T08:22:32;1.20;;;0.67;;
67869;SDS011;54673;52.262;6.830;2023-03-07T08:24:58;7.22;;;0.73;;
67869;SDS011;54673;52.262;6.830;2023-03-07T08:27:23;2.33;;;0.70;;
67869;SDS011;54673;52.262;6.830;2023-03-07T08:29:49;1.17;;;0.45;;
67869;SDS011;54673;52.262;6.830;2023-03-07T08:32:15;3.43;;;0.80;;
67869;SDS011;54673;52.262;6.830;2023-03-07T08:34:40;7.55;;;0.70;;
67869;SDS011;54673;52.262;6.830;2023-03-07T08:37:06;1.20;;;0.63;;
67869;SDS011;54673;52.262;6.830;2023-03-07T08:39:31;1.27;;;0.80;;
67869;SDS011;54673;52.262;6.830;2023-03-07T08:41:57;1.70;;;0.80;;
67869;SDS011;54673;52.262;6.830;2023-03-07T08:44:23;1.63;;;0.80;;
67869;SDS011;54673;52.262;6.830;2023-03-07T08:46:49;1.67;;;0.70;;
67869;SDS011;54673;52.262;6.830;2023-03-07T08:49:14;1.30;;;0.60;;
67869;SDS011;54673;52.262;6.830;2023-03-07T08:51:40;1.13;;;0.70;;
67869;SDS011;54673;52.262;6.830;2023-03-07T08:54:05;2.05;;;0.88;;
67869;SDS011;54673;52.262;6.830;2023-03-07T08:56:31;0.87;;;0.70;;
67869;SDS011;54673;52.262;6.830;2023-03-07T08:58:56;1.13;;;0.90;;
67869;SDS011;54673;52.262;6.830;2023-03-07T09:01:22;0.93;;;0.77;;
67869;SDS011;54673;52.262;6.830;2023-03-07T09:03:47;2.90;;;1.07;;
67869;SDS011;54673;52.262;6.830;2023-03-07T09:06:14;1.40;;;0.70;;
67869;SDS011;54673;52.262;6.830;2023-03-07T09:08:41;1.92;;;0.80;;
67869;SDS011;54673;52.262;6.830;2023-03-07T09:11:07;1.25;;;0.70;;
67869;SDS011;54673;52.262;6.830;2023-03-07T09:13:33;1.80;;;0.93;;
67869;SDS011;54673;52.262;6.830;2023-03-07T09:15:59;0.90;;;0.53;;
67869;SDS011;54673;52.262;6.830;2023-03-07T09:18:24;0.98;;;0.63;;
67869;SDS011;54673;52.262;6.830;2023-03-07T09:20:50;2.00;;;0.80;;
67869;SDS011;54673;52.262;6.830;2023-03-07T09:23:15;0.90;;;0.50;;
67869;SDS011;54673;52.262;6.830;2023-03-07T09:25:41;2.20;;;0.67;;
67869;SDS011;54673;52.262;6.830;2023-03-07T09:28:08;1.33;;;0.60;;
67869;SDS011;54673;52.262;6.830;2023-03-07T09:30:33;1.48;;;0.47;;
67869;SDS011;54673;52.262;6.830;2023-03-07T09:33:00;1.23;;;0.50;;
67869;SDS011;54673;52.262;6.830;2023-03-07T09:35:26;1.55;;;0.60;;
67869;SDS011;54673;52.262;6.830;2023-03-07T09:37:51;0.73;;;0.50;;
67869;SDS011;54673;52.262;6.830;2023-03-07T09:40:18;1.23;;;0.67;;
67869;SDS011;54673;52.262;6.830;2023-03-07T09:42:56;2.13;;;0.50;;
67869;SDS011;54673;52.262;6.830;2023-03-07T09:45:33;1.15;;;0.55;;
67869;SDS011;54673;52.262;6.830;2023-03-07T09:50:57;2.60;;;0.60;;
67869;SDS011;54673;52.262;6.830;2023-03-07T09:53:44;4.17;;;0.73;;
67869;SDS011;54673;52.262;6.830;2023-03-07T09:56:33;1.00;;;0.50;;
67869;SDS011;54673;52.262;6.830;2023-03-07T09:59:38;1.85;;;0.52;;
67869;SDS011;54673;52.262;6.830;2023-03-07T10:02:19;0.77;;;0.47;;
67869;SDS011;54673;52.262;6.830;2023-03-07T10:07:28;3.93;;;0.80;;
67869;SDS011;54673;52.262;6.830;2023-03-07T10:10:10;3.78;;;0.60;;
67869;SDS011;54673;52.262;6.830;2023-03-07T10:15:33;7.20;;;0.90;;
67869;SDS011;54673;52.262;6.830;2023-03-07T10:23:34;10.25;;;1.88;;
67869;SDS011;54673;52.262;6.830;2023-03-07T10:26:25;13.85;;;1.70;;
67869;SDS011;54673;52.262;6.830;2023-03-07T10:28:53;12.37;;;1.40;;
67869;SDS011;54673;52.262;6.830;2023-03-07T10:33:53;8.23;;;0.97;;
67869;SDS011;54673;52.262;6.830;2023-03-07T10:36:29;6.57;;;1.00;;
67869;SDS011;54673;52.262;6.830;2023-03-07T10:39:11;8.05;;;1.00;;
67869;SDS011;54673;52.262;6.830;2023-03-07T10:41:40;7.73;;;1.00;;
67869;SDS011;54673;52.262;6.830;2023-03-07T10:44:08;4.93;;;0.90;;
67869;SDS011;54673;52.262;6.830;2023-03-07T10:46:41;8.00;;;0.97;;
67869;SDS011;54673;52.262;6.830;2023-03-07T10:49:13;5.93;;;0.82;;
67869;SDS011;54673;52.262;6.830;2023-03-07T10:51:49;5.37;;;0.80;;
67869;SDS011;54673;52.262;6.830;2023-03-07T10:54:35;8.95;;;0.98;;
67869;SDS011;54673;52.262;6.830;2023-03-07T10:57:02;4.13;;;1.02;;
67869;SDS011;54673;52.262;6.830;2023-03-07T10:59:35;1.60;;;0.70;;
67869;SDS011;54673;52.262;6.830;2023-03-07T11:02:08;3.63;;;0.80;;
67869;SDS011;54673;52.262;6.830;2023-03-07T11:04:51;3.27;;;0.60;;
67869;SDS011;54673;52.262;6.830;2023-03-07T11:07:25;2.95;;;0.73;;
67869;SDS011;54673;52.262;6.830;2023-03-07T11:09:55;6.80;;;0.80;;
67869;SDS011;54673;52.262;6.830;2023-03-07T11:12:23;5.10;;;1.00;;
67869;SDS011;54673;52.262;6.830;2023-03-07T11:14:51;3.35;;;0.80;;
67869;SDS011;54673;52.262;6.830;2023-03-07T11:19:52;2.70;;;0.80;;
67869;SDS011;54673;52.262;6.830;2023-03-07T11:22:23;2.83;;;0.63;;
67869;SDS011;54673;52.262;6.830;2023-03-07T11:24:55;2.93;;;0.70;;
67869;SDS011;54673;52.262;6.830;2023-03-07T11:27:46;3.88;;;0.60;;
67869;SDS011;54673;52.262;6.830;2023-03-07T11:35:56;2.42;;;0.90;;
67869;SDS011;54673;52.262;6.830;2023-03-07T11:38:27;1.90;;;0.70;;
67869;SDS011;54673;52.262;6.830;2023-03-07T11:41:23;1.33;;;0.63;;
67869;SDS011;54673;52.262;6.830;2023-03-07T11:52:16;1.50;;;0.60;;
67869;SDS011;54673;52.262;6.830;2023-03-07T11:57:48;1.87;;;0.60;;
67869;SDS011;54673;52.262;6.830;2023-03-07T12:00:28;4.05;;;1.00;;
67869;SDS011;54673;52.262;6.830;2023-03-07T12:08:32;0.93;;;0.70;;
67869;SDS011;54673;52.262;6.830;2023-03-07T12:11:10;1.77;;;0.60;;
67869;SDS011;54673;52.262;6.830;2023-03-07T12:19:32;1.90;;;0.60;;
67869;SDS011;54673;52.262;6.830;2023-03-07T12:24:59;2.27;;;0.73;;
67869;SDS011;54673;52.262;6.830;2023-03-07T12:27:46;5.20;;;0.60;;
67869;SDS011;54673;52.262;6.830;2023-03-07T12:33:23;3.90;;;0.93;;
67869;SDS011;54673;52.262;6.830;2023-03-07T12:35:57;1.58;;;0.90;;
67869;SDS011;54673;52.262;6.830;2023-03-07T12:38:41;2.50;;;0.80;;
67869;SDS011;54673;52.262;6.830;2023-03-07T12:41:19;2.78;;;0.85;;
67869;SDS011;54673;52.262;6.830;2023-03-07T12:43:55;1.80;;;0.60;;
67869;SDS011;54673;52.262;6.830;2023-03-07T12:46:37;3.83;;;1.07;;
67869;SDS011;54673;52.262;6.830;2023-03-07T12:49:31;3.90;;;0.80;;
67869;SDS011;54673;52.262;6.830;2023-03-07T12:52:03;2.43;;;0.87;;
67869;SDS011;54673;52.262;6.830;2023-03-07T12:54:35;1.90;;;0.90;;
67869;SDS011;54673;52.262;6.830;2023-03-07T13:00:04;1.70;;;0.70;;
67869;SDS011;54673;52.262;6.830;2023-03-07T13:02:36;2.10;;;0.65;;
67869;SDS011;54673;52.262;6.830;2023-03-07T13:05:13;4.30;;;0.80;;
67869;SDS011;54673;52.262;6.830;2023-03-07T13:07:43;1.73;;;0.68;;
67869;SDS011;54673;52.262;6.830;2023-03-07T13:10:10;1.05;;;0.68;;
67869;SDS011;54673;52.262;6.830;2023-03-07T13:12:41;1.43;;;0.60;;
67869;SDS011;54673;52.262;6.830;2023-03-07T13:28:29;1.33;;;0.50;;
67869;SDS011;54673;52.262;6.830;2023-03-07T13:33:41;0.77;;;0.53;;
67869;SDS011;54673;52.262;6.830;2023-03-07T13:38:55;1.95;;;0.57;;
67869;SDS011;54673;52.262;6.830;2023-03-07T13:44:29;1.45;;;0.50;;
67869;SDS011;54673;52.262;6.830;2023-03-07T13:47:02;1.87;;;0.50;;
67869;SDS011;54673;52.262;6.830;2023-03-07T13:49:35;1.65;;;0.70;;
67869;SDS011;54673;52.262;6.830;2023-03-07T13:52:22;1.37;;;0.50;;
67869;SDS011;54673;52.262;6.830;2023-03-07T13:54:55;1.13;;;0.60;;
67869;SDS011;54673;52.262;6.830;2023-03-07T13:57:23;0.73;;;0.63;;
67869;SDS011;54673;52.262;6.830;2023-03-07T13:59:53;1.57;;;0.70;;
67869;SDS011;54673;52.262;6.830;2023-03-07T14:02:20;1.08;;;0.68;;
67869;SDS011;54673;52.262;6.830;2023-03-07T14:04:47;2.30;;;0.60;;
67869;SDS011;54673;52.262;6.830;2023-03-07T14:07:30;1.17;;;0.70;;
67869;SDS011;54673;52.262;6.830;2023-03-07T14:10:01;1.10;;;0.63;;
67869;SDS011;54673;52.262;6.830;2023-03-07T14:18:24;0.57;;;0.50;;
67869;SDS011;54673;52.262;6.830;2023-03-07T14:23:56;1.55;;;0.50;;
67869;SDS011;54673;52.262;6.830;2023-03-07T14:26:34;0.70;;;0.60;;
67869;SDS011;54673;52.262;6.830;2023-03-07T14:29:27;1.70;;;0.40;;
67869;SDS011;54673;52.262;6.830;2023-03-07T14:31:55;0.70;;;0.70;;
67869;SDS011;54673;52.262;6.830;2023-03-07T14:37:07;0.75;;;0.40;;
67869;SDS011;54673;52.262;6.830;2023-03-07T14:50:43;1.30;;;0.50;;
67869;SDS011;54673;52.262;6.830;2023-03-07T14:53:14;1.20;;;0.50;;
67869;SDS011;54673;52.262;6.830;2023-03-07T14:55:50;0.67;;;0.40;;
67869;SDS011;54673;52.262;6.830;2023-03-07T14:58:30;0.80;;;0.60;;
67869;SDS011;54673;52.262;6.830;2023-03-07T15:01:03;1.27;;;0.40;;
67869;SDS011;54673;52.262;6.830;2023-03-07T15:03:30;1.40;;;0.50;;
67869;SDS011;54673;52.262;6.830;2023-03-07T15:06:00;0.50;;;0.50;;
67869;SDS011;54673;52.262;6.830;2023-03-07T15:11:07;1.02;;;0.50;;
67869;SDS011;54673;52.262;6.830;2023-03-07T15:19:01;0.97;;;0.50;;
67869;SDS011;54673;52.262;6.830;2023-03-07T15:21:44;0.67;;;0.50;;
67869;SDS011;54673;52.262;6.830;2023-03-07T15:24:26;0.93;;;0.50;;
67869;SDS011;54673;52.262;6.830;2023-03-07T15:26:57;0.63;;;0.60;;
67869;SDS011;54673;52.262;6.830;2023-03-07T15:29:25;0.75;;;0.55;;
67869;SDS011;54673;52.262;6.830;2023-03-07T15:32:03;1.02;;;0.50;;
67869;SDS011;54673;52.262;6.830;2023-03-07T15:34:34;1.43;;;0.60;;
67869;SDS011;54673;52.262;6.830;2023-03-07T15:40:22;0.80;;;0.50;;
67869;SDS011;54673;52.262;6.830;2023-03-07T15:43:43;1.05;;;0.57;;
67869;SDS011;54673;52.262;6.830;2023-03-07T15:51:22;1.48;;;0.50;;
67869;SDS011;54673;52.262;6.830;2023-03-07T15:53:55;0.57;;;0.43;;
67869;SDS011;54673;52.262;6.830;2023-03-07T15:56:28;1.88;;;0.80;;
67869;SDS011;54673;52.262;6.830;2023-03-07T15:58:59;0.65;;;0.50;;
67869;SDS011;54673;52.262;6.830;2023-03-07T16:01:27;0.70;;;0.40;;
67869;SDS011;54673;52.262;6.830;2023-03-07T16:03:54;0.80;;;0.50;;
67869;SDS011;54673;52.262;6.830;2023-03-07T16:09:02;0.70;;;0.50;;
67869;SDS011;54673;52.262;6.830;2023-03-07T16:11:29;0.80;;;0.50;;
67869;SDS011;54673;52.262;6.830;2023-03-07T16:13:55;1.30;;;0.50;;
67869;SDS011;54673;52.262;6.830;2023-03-07T16:16:22;0.65;;;0.40;;
67869;SDS011;54673;52.262;6.830;2023-03-07T16:18:50;0.77;;;0.40;;
67869;SDS011;54673;52.262;6.830;2023-03-07T16:21:16;0.80;;;0.50;;
67869;SDS011;54673;52.262;6.830;2023-03-07T16:23:43;0.97;;;0.67;;
67869;SDS011;54673;52.262;6.830;2023-03-07T16:26:11;1.35;;;0.50;;
67869;SDS011;54673;52.262;6.830;2023-03-07T16:28:41;0.68;;;0.50;;
67869;SDS011;54673;52.262;6.830;2023-03-07T16:31:11;0.93;;;0.60;;
67869;SDS011;54673;52.262;6.830;2023-03-07T16:33:38;0.65;;;0.57;;
67869;SDS011;54673;52.262;6.830;2023-03-07T16:36:04;1.27;;;0.50;;
67869;SDS011;54673;52.262;6.830;2023-03-07T16:38:29;1.48;;;0.52;;
67869;SDS011;54673;52.262;6.830;2023-03-07T16:40:55;0.80;;;0.57;;
67869;SDS011;54673;52.262;6.830;2023-03-07T16:43:32;0.73;;;0.50;;
67869;SDS011;54673;52.262;6.830;2023-03-07T16:46:03;1.33;;;0.50;;
67869;SDS011;54673;52.262;6.830;2023-03-07T16:48:30;0.60;;;0.50;;
67869;SDS011;54673;52.262;6.830;2023-03-07T16:50:56;1.75;;;0.50;;
67869;SDS011;54673;52.262;6.830;2023-03-07T16:53:22;0.97;;;0.53;;
67869;SDS011;54673;52.262;6.830;2023-03-07T16:55:48;0.63;;;0.60;;
67869;SDS011;54673;52.262;6.830;2023-03-07T16:58:17;2.03;;;0.60;;
67869;SDS011;54673;52.262;6.830;2023-03-07T17:00:49;1.48;;;0.60;;
67869;SDS011;54673;52.262;6.830;2023-03-07T17:03:15;1.00;;;0.50;;
67869;SDS011;54673;52.262;6.830;2023-03-07T17:05:41;1.13;;;0.63;;
67869;SDS011;54673;52.262;6.830;2023-03-07T17:08:07;1.17;;;0.60;;